sensor_id;sensor_type;location;lat;lon;timestamp;temperature;humidity
20512;DHT22;10414;52.074;5.126;2022-07-24T00:02:09;21.00;99.90
20512;DHT22;10414;52.074;5.126;2022-07-24T00:04:37;21.00;99.90
20512;DHT22;10414;52.074;5.126;2022-07-24T00:07:04;20.80;99.90
20512;DHT22;10414;52.074;5.126;2022-07-24T00:09:31;20.70;99.90
20512;DHT22;10414;52.074;5.126;2022-07-24T00:11:58;20.70;99.90
20512;DHT22;10414;52.074;5.126;2022-07-24T00:14:25;20.70;99.90
20512;DHT22;10414;52.074;5.126;2022-07-24T00:16:54;20.80;99.90
20512;DHT22;10414;52.074;5.126;2022-07-24T00:19:21;20.80;99.90
20512;DHT22;10414;52.074;5.126;2022-07-24T00:21:48;20.80;99.90
20512;DHT22;10414;52.074;5.126;2022-07-24T00:24:14;20.80;99.90
20512;DHT22;10414;52.074;5.126;2022-07-24T00:26:42;20.80;99.90
20512;DHT22;10414;52.074;5.126;2022-07-24T00:29:09;20.70;99.90
20512;DHT22;10414;52.074;5.126;2022-07-24T00:31:36;20.80;99.90
20512;DHT22;10414;52.074;5.126;2022-07-24T00:34:04;20.90;99.90
20512;DHT22;10414;52.074;5.126;2022-07-24T00:36:32;20.80;99.90
20512;DHT22;10414;52.074;5.126;2022-07-24T00:38:59;20.70;99.90
20512;DHT22;10414;52.074;5.126;2022-07-24T00:41:26;20.70;99.90
20512;DHT22;10414;52.074;5.126;2022-07-24T00:43:59;20.60;99.90
20512;DHT22;10414;52.074;5.126;2022-07-24T00:46:26;20.60;99.90
20512;DHT22;10414;52.074;5.126;2022-07-24T00:48:53;20.70;99.90
20512;DHT22;10414;52.074;5.126;2022-07-24T00:51:22;20.60;99.90
20512;DHT22;10414;52.074;5.126;2022-07-24T00:53:50;20.40;99.90
20512;DHT22;10414;52.074;5.126;2022-07-24T00:56:17;20.30;99.90
20512;DHT22;10414;52.074;5.126;2022-07-24T00:58:45;20.30;99.90
20512;DHT22;10414;52.074;5.126;2022-07-24T01:01:13;20.40;99.90
20512;DHT22;10414;52.074;5.126;2022-07-24T01:03:40;20.30;99.90
20512;DHT22;10414;52.074;5.126;2022-07-24T01:06:08;20.20;99.90
20512;DHT22;10414;52.074;5.126;2022-07-24T01:08:37;20.20;99.90
20512;DHT22;10414;52.074;5.126;2022-07-24T01:11:04;20.30;99.90
20512;DHT22;10414;52.074;5.126;2022-07-24T01:13:32;20.30;99.90
20512;DHT22;10414;52.074;5.126;2022-07-24T01:15:59;20.20;99.90
20512;DHT22;10414;52.074;5.126;2022-07-24T01:18:26;20.10;99.90
20512;DHT22;10414;52.074;5.126;2022-07-24T01:20:55;20.10;99.90
20512;DHT22;10414;52.074;5.126;2022-07-24T01:23:22;20.10;99.90
20512;DHT22;10414;52.074;5.126;2022-07-24T01:25:49;20.10;99.90
20512;DHT22;10414;52.074;5.126;2022-07-24T01:28:17;20.00;99.90
20512;DHT22;10414;52.074;5.126;2022-07-24T01:30:45;20.00;99.90
20512;DHT22;10414;52.074;5.126;2022-07-24T01:33:13;20.00;99.90
20512;DHT22;10414;52.074;5.126;2022-07-24T01:35:40;20.00;99.90
20512;DHT22;10414;52.074;5.126;2022-07-24T01:38:09;20.10;99.90
20512;DHT22;10414;52.074;5.126;2022-07-24T01:40:41;20.10;99.90
20512;DHT22;10414;52.074;5.126;2022-07-24T01:43:08;20.20;99.90
20512;DHT22;10414;52.074;5.126;2022-07-24T01:45:35;20.20;99.90
20512;DHT22;10414;52.074;5.126;2022-07-24T01:48:03;20.20;99.90
20512;DHT22;10414;52.074;5.126;2022-07-24T01:50:33;20.20;99.90
20512;DHT22;10414;52.074;5.126;2022-07-24T01:53:00;20.20;99.90
20512;DHT22;10414;52.074;5.126;2022-07-24T01:55:29;20.20;99.90
20512;DHT22;10414;52.074;5.126;2022-07-24T01:57:57;20.30;99.90
20512;DHT22;10414;52.074;5.126;2022-07-24T02:00:24;20.30;99.90
20512;DHT22;10414;52.074;5.126;2022-07-24T02:02:51;20.40;99.90
20512;DHT22;10414;52.074;5.126;2022-07-24T02:05:18;20.40;99.90
20512;DHT22;10414;52.074;5.126;2022-07-24T02:07:45;20.30;99.90
20512;DHT22;10414;52.074;5.126;2022-07-24T02:10:13;20.30;99.90
20512;DHT22;10414;52.074;5.126;2022-07-24T02:12:41;20.30;99.90
20512;DHT22;10414;52.074;5.126;2022-07-24T02:15:09;20.20;99.90
20512;DHT22;10414;52.074;5.126;2022-07-24T02:17:36;20.20;99.90
20512;DHT22;10414;52.074;5.126;2022-07-24T02:20:04;20.10;99.90
20512;DHT22;10414;52.074;5.126;2022-07-24T02:22:31;20.10;99.90
20512;DHT22;10414;52.074;5.126;2022-07-24T02:24:59;20.10;99.90
20512;DHT22;10414;52.074;5.126;2022-07-24T02:27:27;20.10;99.90
20512;DHT22;10414;52.074;5.126;2022-07-24T02:29:55;20.10;99.90
20512;DHT22;10414;52.074;5.126;2022-07-24T02:32:22;20.00;99.90
20512;DHT22;10414;52.074;5.126;2022-07-24T02:34:50;20.00;99.90
20512;DHT22;10414;52.074;5.126;2022-07-24T02:37:17;19.80;99.90
20512;DHT22;10414;52.074;5.126;2022-07-24T02:39:44;19.80;99.90
20512;DHT22;10414;52.074;5.126;2022-07-24T02:42:11;19.70;99.90
20512;DHT22;10414;52.074;5.126;2022-07-24T02:44:39;19.80;99.90
20512;DHT22;10414;52.074;5.126;2022-07-24T02:47:07;19.80;99.90
20512;DHT22;10414;52.074;5.126;2022-07-24T02:49:34;19.90;99.90
20512;DHT22;10414;52.074;5.126;2022-07-24T02:52:05;19.80;99.90
20512;DHT22;10414;52.074;5.126;2022-07-24T02:54:32;19.80;99.90
20512;DHT22;10414;52.074;5.126;2022-07-24T02:57:00;19.70;99.90
20512;DHT22;10414;52.074;5.126;2022-07-24T02:59:27;19.70;99.90
20512;DHT22;10414;52.074;5.126;2022-07-24T03:01:54;19.70;99.90
20512;DHT22;10414;52.074;5.126;2022-07-24T03:04:22;19.70;99.90
20512;DHT22;10414;52.074;5.126;2022-07-24T03:06:49;19.70;99.90
20512;DHT22;10414;52.074;5.126;2022-07-24T03:09:16;19.60;99.90
20512;DHT22;10414;52.074;5.126;2022-07-24T03:11:43;19.60;99.90
20512;DHT22;10414;52.074;5.126;2022-07-24T03:14:10;19.60;99.90
20512;DHT22;10414;52.074;5.126;2022-07-24T03:16:37;19.70;99.90
20512;DHT22;10414;52.074;5.126;2022-07-24T03:19:04;19.80;99.90
20512;DHT22;10414;52.074;5.126;2022-07-24T03:21:33;19.80;99.90
20512;DHT22;10414;52.074;5.126;2022-07-24T03:24:00;19.80;99.90
20512;DHT22;10414;52.074;5.126;2022-07-24T03:26:26;19.80;99.90
20512;DHT22;10414;52.074;5.126;2022-07-24T03:28:53;19.70;99.90
20512;DHT22;10414;52.074;5.126;2022-07-24T03:31:20;19.70;99.90
20512;DHT22;10414;52.074;5.126;2022-07-24T03:33:47;19.60;99.90
20512;DHT22;10414;52.074;5.126;2022-07-24T03:36:14;19.60;99.90
20512;DHT22;10414;52.074;5.126;2022-07-24T03:38:43;19.50;99.90
20512;DHT22;10414;52.074;5.126;2022-07-24T03:41:10;19.40;99.90
20512;DHT22;10414;52.074;5.126;2022-07-24T03:43:36;19.40;99.90
20512;DHT22;10414;52.074;5.126;2022-07-24T03:46:04;19.30;99.90
20512;DHT22;10414;52.074;5.126;2022-07-24T03:48:31;19.30;99.90
20512;DHT22;10414;52.074;5.126;2022-07-24T03:50:58;19.50;99.90
20512;DHT22;10414;52.074;5.126;2022-07-24T03:53:25;19.50;99.90
20512;DHT22;10414;52.074;5.126;2022-07-24T03:55:53;19.40;99.90
20512;DHT22;10414;52.074;5.126;2022-07-24T03:58:20;19.50;99.90
20512;DHT22;10414;52.074;5.126;2022-07-24T04:00:47;19.60;99.90
20512;DHT22;10414;52.074;5.126;2022-07-24T04:03:14;19.70;99.90
20512;DHT22;10414;52.074;5.126;2022-07-24T04:05:41;19.80;99.90
20512;DHT22;10414;52.074;5.126;2022-07-24T04:08:08;19.70;99.90
20512;DHT22;10414;52.074;5.126;2022-07-24T04:10:34;19.80;99.90
20512;DHT22;10414;52.074;5.126;2022-07-24T04:13:03;19.70;99.90
20512;DHT22;10414;52.074;5.126;2022-07-24T04:15:30;19.60;99.90
20512;DHT22;10414;52.074;5.126;2022-07-24T04:17:56;19.60;99.90
20512;DHT22;10414;52.074;5.126;2022-07-24T04:20:23;19.50;99.90
20512;DHT22;10414;52.074;5.126;2022-07-24T04:22:50;19.50;99.90
20512;DHT22;10414;52.074;5.126;2022-07-24T04:25:18;19.50;99.90
20512;DHT22;10414;52.074;5.126;2022-07-24T04:27:45;19.30;99.90
20512;DHT22;10414;52.074;5.126;2022-07-24T04:30:15;19.40;99.90
20512;DHT22;10414;52.074;5.126;2022-07-24T04:32:42;19.40;99.90
20512;DHT22;10414;52.074;5.126;2022-07-24T04:35:09;19.50;99.90
20512;DHT22;10414;52.074;5.126;2022-07-24T04:37:36;19.50;99.90
20512;DHT22;10414;52.074;5.126;2022-07-24T04:40:03;19.70;99.90
20512;DHT22;10414;52.074;5.126;2022-07-24T04:42:31;19.90;99.90
20512;DHT22;10414;52.074;5.126;2022-07-24T04:44:58;20.20;99.90
20512;DHT22;10414;52.074;5.126;2022-07-24T04:47:26;20.80;99.90
20512;DHT22;10414;52.074;5.126;2022-07-24T04:49:53;21.40;99.90
20512;DHT22;10414;52.074;5.126;2022-07-24T04:52:20;22.40;99.90
20512;DHT22;10414;52.074;5.126;2022-07-24T04:54:47;23.20;99.90
20512;DHT22;10414;52.074;5.126;2022-07-24T04:57:13;23.90;99.90
20512;DHT22;10414;52.074;5.126;2022-07-24T04:59:40;24.90;99.80
20512;DHT22;10414;52.074;5.126;2022-07-24T05:02:07;25.80;98.10
20512;DHT22;10414;52.074;5.126;2022-07-24T05:04:36;26.60;96.00
20512;DHT22;10414;52.074;5.126;2022-07-24T05:07:03;27.10;94.70
20512;DHT22;10414;52.074;5.126;2022-07-24T05:09:30;27.40;93.80
20512;DHT22;10414;52.074;5.126;2022-07-24T05:11:57;27.70;92.50
20512;DHT22;10414;52.074;5.126;2022-07-24T05:14:24;28.20;91.50
20512;DHT22;10414;52.074;5.126;2022-07-24T05:16:51;29.00;89.90
20512;DHT22;10414;52.074;5.126;2022-07-24T05:19:18;29.40;88.80
20512;DHT22;10414;52.074;5.126;2022-07-24T05:21:47;29.60;86.60
20512;DHT22;10414;52.074;5.126;2022-07-24T05:24:14;30.60;84.50
20512;DHT22;10414;52.074;5.126;2022-07-24T05:26:41;30.80;82.80
20512;DHT22;10414;52.074;5.126;2022-07-24T05:29:08;30.90;80.90
20512;DHT22;10414;52.074;5.126;2022-07-24T05:31:35;30.90;80.70
20512;DHT22;10414;52.074;5.126;2022-07-24T05:34:02;31.60;78.50
20512;DHT22;10414;52.074;5.126;2022-07-24T05:36:29;31.70;78.20
20512;DHT22;10414;52.074;5.126;2022-07-24T05:38:57;31.50;77.60
20512;DHT22;10414;52.074;5.126;2022-07-24T05:41:24;31.80;77.40
20512;DHT22;10414;52.074;5.126;2022-07-24T05:43:51;31.80;76.40
20512;DHT22;10414;52.074;5.126;2022-07-24T05:46:19;32.00;76.00
20512;DHT22;10414;52.074;5.126;2022-07-24T05:48:46;31.50;76.60
20512;DHT22;10414;52.074;5.126;2022-07-24T05:51:13;31.60;76.20
20512;DHT22;10414;52.074;5.126;2022-07-24T05:53:40;32.10;76.50
20512;DHT22;10414;52.074;5.126;2022-07-24T05:56:08;33.40;73.00
20512;DHT22;10414;52.074;5.126;2022-07-24T05:58:35;33.60;72.90
20512;DHT22;10414;52.074;5.126;2022-07-24T06:01:03;33.80;71.20
20512;DHT22;10414;52.074;5.126;2022-07-24T06:03:30;34.50;70.40
20512;DHT22;10414;52.074;5.126;2022-07-24T06:05:57;35.10;69.50
20512;DHT22;10414;52.074;5.126;2022-07-24T06:08:24;34.30;69.90
20512;DHT22;10414;52.074;5.126;2022-07-24T06:10:51;34.90;69.50
20512;DHT22;10414;52.074;5.126;2022-07-24T06:13:19;34.90;69.00
20512;DHT22;10414;52.074;5.126;2022-07-24T06:15:46;35.40;67.90
20512;DHT22;10414;52.074;5.126;2022-07-24T06:18:13;35.20;68.00
20512;DHT22;10414;52.074;5.126;2022-07-24T06:20:40;34.70;68.00
20512;DHT22;10414;52.074;5.126;2022-07-24T06:23:07;34.90;68.70
20512;DHT22;10414;52.074;5.126;2022-07-24T06:25:34;35.70;67.10
20512;DHT22;10414;52.074;5.126;2022-07-24T06:28:01;35.00;68.30
20512;DHT22;10414;52.074;5.126;2022-07-24T06:30:30;35.90;67.20
20512;DHT22;10414;52.074;5.126;2022-07-24T06:32:58;37.00;65.60
20512;DHT22;10414;52.074;5.126;2022-07-24T06:35:27;36.50;65.40
20512;DHT22;10414;52.074;5.126;2022-07-24T06:37:55;36.00;66.10
20512;DHT22;10414;52.074;5.126;2022-07-24T06:40:22;36.30;65.80
20512;DHT22;10414;52.074;5.126;2022-07-24T06:42:49;36.80;64.90
20512;DHT22;10414;52.074;5.126;2022-07-24T06:45:16;36.90;64.60
20512;DHT22;10414;52.074;5.126;2022-07-24T06:47:44;37.40;63.80
20512;DHT22;10414;52.074;5.126;2022-07-24T06:50:12;36.70;64.80
20512;DHT22;10414;52.074;5.126;2022-07-24T06:52:40;37.40;63.00
20512;DHT22;10414;52.074;5.126;2022-07-24T06:55:07;36.80;63.40
20512;DHT22;10414;52.074;5.126;2022-07-24T06:57:34;35.60;65.00
20512;DHT22;10414;52.074;5.126;2022-07-24T07:00:04;36.70;64.30
20512;DHT22;10414;52.074;5.126;2022-07-24T07:02:33;37.50;63.30
20512;DHT22;10414;52.074;5.126;2022-07-24T07:05:01;37.50;62.80
20512;DHT22;10414;52.074;5.126;2022-07-24T07:07:28;38.00;62.90
20512;DHT22;10414;52.074;5.126;2022-07-24T07:09:55;38.60;61.90
20512;DHT22;10414;52.074;5.126;2022-07-24T07:12:22;38.40;61.50
20512;DHT22;10414;52.074;5.126;2022-07-24T07:14:48;38.00;61.80
20512;DHT22;10414;52.074;5.126;2022-07-24T07:17:15;38.00;61.80
20512;DHT22;10414;52.074;5.126;2022-07-24T07:19:43;37.00;62.50
20512;DHT22;10414;52.074;5.126;2022-07-24T07:22:11;37.10;62.50
20512;DHT22;10414;52.074;5.126;2022-07-24T07:24:38;37.50;62.40
20512;DHT22;10414;52.074;5.126;2022-07-24T07:27:05;35.70;63.70
20512;DHT22;10414;52.074;5.126;2022-07-24T07:29:32;35.60;64.50
20512;DHT22;10414;52.074;5.126;2022-07-24T07:31:58;36.10;63.80
20512;DHT22;10414;52.074;5.126;2022-07-24T07:34:25;36.50;63.40
20512;DHT22;10414;52.074;5.126;2022-07-24T07:36:53;37.30;62.30
20512;DHT22;10414;52.074;5.126;2022-07-24T07:39:24;36.30;62.20
20512;DHT22;10414;52.074;5.126;2022-07-24T07:41:51;33.50;66.00
20512;DHT22;10414;52.074;5.126;2022-07-24T07:44:18;32.90;67.40
20512;DHT22;10414;52.074;5.126;2022-07-24T07:46:44;32.70;67.40
20512;DHT22;10414;52.074;5.126;2022-07-24T07:49:11;32.30;68.30
20512;DHT22;10414;52.074;5.126;2022-07-24T07:51:38;31.70;70.00
20512;DHT22;10414;52.074;5.126;2022-07-24T07:54:05;31.70;70.60
20512;DHT22;10414;52.074;5.126;2022-07-24T07:56:34;31.70;69.70
20512;DHT22;10414;52.074;5.126;2022-07-24T07:59:01;31.60;69.30
20512;DHT22;10414;52.074;5.126;2022-07-24T08:01:28;31.40;69.80
20512;DHT22;10414;52.074;5.126;2022-07-24T08:03:54;31.00;69.80
20512;DHT22;10414;52.074;5.126;2022-07-24T08:06:21;31.40;70.50
20512;DHT22;10414;52.074;5.126;2022-07-24T08:08:48;33.40;68.00
20512;DHT22;10414;52.074;5.126;2022-07-24T08:11:15;36.10;64.90
20512;DHT22;10414;52.074;5.126;2022-07-24T08:13:44;37.20;62.30
20512;DHT22;10414;52.074;5.126;2022-07-24T08:16:11;36.70;62.60
20512;DHT22;10414;52.074;5.126;2022-07-24T08:18:39;34.90;64.10
20512;DHT22;10414;52.074;5.126;2022-07-24T08:21:06;33.10;67.30
20512;DHT22;10414;52.074;5.126;2022-07-24T08:23:33;33.90;65.60
20512;DHT22;10414;52.074;5.126;2022-07-24T08:26:00;35.90;63.30
20512;DHT22;10414;52.074;5.126;2022-07-24T08:28:27;36.80;62.10
20512;DHT22;10414;52.074;5.126;2022-07-24T08:30:55;36.80;61.70
20512;DHT22;10414;52.074;5.126;2022-07-24T08:33:22;37.40;60.70
20512;DHT22;10414;52.074;5.126;2022-07-24T08:35:49;38.10;60.10
20512;DHT22;10414;52.074;5.126;2022-07-24T08:38:16;37.10;60.60
20512;DHT22;10414;52.074;5.126;2022-07-24T08:40:43;36.80;60.70
20512;DHT22;10414;52.074;5.126;2022-07-24T08:43:11;36.60;61.70
20512;DHT22;10414;52.074;5.126;2022-07-24T08:45:40;37.00;61.10
20512;DHT22;10414;52.074;5.126;2022-07-24T08:48:09;37.00;60.90
20512;DHT22;10414;52.074;5.126;2022-07-24T08:50:38;37.30;60.50
20512;DHT22;10414;52.074;5.126;2022-07-24T08:53:05;38.20;59.50
20512;DHT22;10414;52.074;5.126;2022-07-24T08:55:32;38.20;59.00
20512;DHT22;10414;52.074;5.126;2022-07-24T08:58:02;38.00;59.80
20512;DHT22;10414;52.074;5.126;2022-07-24T09:00:31;37.30;59.60
20512;DHT22;10414;52.074;5.126;2022-07-24T09:02:59;36.60;60.50
20512;DHT22;10414;52.074;5.126;2022-07-24T09:05:27;36.80;61.30
20512;DHT22;10414;52.074;5.126;2022-07-24T09:08:07;36.90;60.70
20512;DHT22;10414;52.074;5.126;2022-07-24T09:10:34;36.70;60.60
20512;DHT22;10414;52.074;5.126;2022-07-24T09:13:12;36.50;61.00
20512;DHT22;10414;52.074;5.126;2022-07-24T09:15:45;37.30;59.10
20512;DHT22;10414;52.074;5.126;2022-07-24T09:18:29;37.50;59.20
20512;DHT22;10414;52.074;5.126;2022-07-24T09:20:59;37.50;59.00
20512;DHT22;10414;52.074;5.126;2022-07-24T09:23:30;38.20;58.10
20512;DHT22;10414;52.074;5.126;2022-07-24T09:26:02;38.10;57.30
20512;DHT22;10414;52.074;5.126;2022-07-24T09:28:30;37.50;58.20
20512;DHT22;10414;52.074;5.126;2022-07-24T09:31:12;36.50;59.60
20512;DHT22;10414;52.074;5.126;2022-07-24T09:33:39;36.90;59.70
20512;DHT22;10414;52.074;5.126;2022-07-24T09:36:13;37.30;60.10
20512;DHT22;10414;52.074;5.126;2022-07-24T09:38:46;36.40;60.70
20512;DHT22;10414;52.074;5.126;2022-07-24T09:41:19;36.90;60.50
20512;DHT22;10414;52.074;5.126;2022-07-24T09:43:56;37.20;60.10
20512;DHT22;10414;52.074;5.126;2022-07-24T09:46:24;37.10;60.30
20512;DHT22;10414;52.074;5.126;2022-07-24T09:48:54;37.20;59.50
20512;DHT22;10414;52.074;5.126;2022-07-24T09:51:25;37.00;59.60
20512;DHT22;10414;52.074;5.126;2022-07-24T09:53:52;37.60;59.30
20512;DHT22;10414;52.074;5.126;2022-07-24T09:56:20;38.20;58.40
20512;DHT22;10414;52.074;5.126;2022-07-24T09:58:48;38.80;57.80
20512;DHT22;10414;52.074;5.126;2022-07-24T10:01:19;38.10;57.90
20512;DHT22;10414;52.074;5.126;2022-07-24T10:03:47;37.50;59.00
20512;DHT22;10414;52.074;5.126;2022-07-24T10:06:15;37.60;59.10
20512;DHT22;10414;52.074;5.126;2022-07-24T10:08:45;36.30;59.50
20512;DHT22;10414;52.074;5.126;2022-07-24T10:11:13;35.10;61.40
20512;DHT22;10414;52.074;5.126;2022-07-24T10:13:41;35.10;60.60
20512;DHT22;10414;52.074;5.126;2022-07-24T10:16:25;35.50;60.90
20512;DHT22;10414;52.074;5.126;2022-07-24T10:18:54;35.20;61.40
20512;DHT22;10414;52.074;5.126;2022-07-24T10:21:23;33.80;62.10
20512;DHT22;10414;52.074;5.126;2022-07-24T10:24:20;34.60;61.70
20512;DHT22;10414;52.074;5.126;2022-07-24T10:27:01;35.50;60.90
20512;DHT22;10414;52.074;5.126;2022-07-24T10:29:29;35.20;60.90
20512;DHT22;10414;52.074;5.126;2022-07-24T10:31:59;35.10;61.00
20512;DHT22;10414;52.074;5.126;2022-07-24T10:34:31;35.40;61.00
20512;DHT22;10414;52.074;5.126;2022-07-24T10:37:07;36.00;60.10
20512;DHT22;10414;52.074;5.126;2022-07-24T10:39:44;35.70;60.80
20512;DHT22;10414;52.074;5.126;2022-07-24T10:42:13;35.60;61.70
20512;DHT22;10414;52.074;5.126;2022-07-24T10:44:40;35.50;61.10
20512;DHT22;10414;52.074;5.126;2022-07-24T10:47:11;35.90;61.30
20512;DHT22;10414;52.074;5.126;2022-07-24T10:49:40;35.10;61.50
20512;DHT22;10414;52.074;5.126;2022-07-24T10:52:09;34.90;61.90
20512;DHT22;10414;52.074;5.126;2022-07-24T10:54:38;35.40;61.20
20512;DHT22;10414;52.074;5.126;2022-07-24T10:57:05;35.60;61.20
20512;DHT22;10414;52.074;5.126;2022-07-24T10:59:35;36.20;60.80
20512;DHT22;10414;52.074;5.126;2022-07-24T11:02:28;36.30;60.10
20512;DHT22;10414;52.074;5.126;2022-07-24T11:05:24;35.70;60.90
20512;DHT22;10414;52.074;5.126;2022-07-24T11:08:24;35.30;61.50
20512;DHT22;10414;52.074;5.126;2022-07-24T11:11:08;34.50;62.40
20512;DHT22;10414;52.074;5.126;2022-07-24T11:13:49;33.30;64.40
20512;DHT22;10414;52.074;5.126;2022-07-24T11:16:22;33.50;64.00
20512;DHT22;10414;52.074;5.126;2022-07-24T11:19:24;33.80;65.10
20512;DHT22;10414;52.074;5.126;2022-07-24T11:22:05;34.70;63.70
20512;DHT22;10414;52.074;5.126;2022-07-24T11:24:33;35.10;62.60
20512;DHT22;10414;52.074;5.126;2022-07-24T11:27:06;35.40;62.60
20512;DHT22;10414;52.074;5.126;2022-07-24T11:29:35;34.10;62.90
20512;DHT22;10414;52.074;5.126;2022-07-24T11:32:04;34.10;63.30
20512;DHT22;10414;52.074;5.126;2022-07-24T11:34:34;34.30;63.60
20512;DHT22;10414;52.074;5.126;2022-07-24T11:37:02;34.40;63.00
20512;DHT22;10414;52.074;5.126;2022-07-24T11:39:30;34.20;63.80
20512;DHT22;10414;52.074;5.126;2022-07-24T11:41:59;33.80;64.40
20512;DHT22;10414;52.074;5.126;2022-07-24T11:44:30;33.40;64.60
20512;DHT22;10414;52.074;5.126;2022-07-24T11:46:58;32.90;65.70
20512;DHT22;10414;52.074;5.126;2022-07-24T11:49:26;33.10;65.70
20512;DHT22;10414;52.074;5.126;2022-07-24T11:51:54;33.40;65.10
20512;DHT22;10414;52.074;5.126;2022-07-24T11:54:23;33.40;65.80
20512;DHT22;10414;52.074;5.126;2022-07-24T11:56:51;33.30;65.40
20512;DHT22;10414;52.074;5.126;2022-07-24T11:59:22;33.10;65.90
20512;DHT22;10414;52.074;5.126;2022-07-24T12:01:54;32.80;65.00
20512;DHT22;10414;52.074;5.126;2022-07-24T12:04:21;32.30;66.60
20512;DHT22;10414;52.074;5.126;2022-07-24T12:06:49;32.00;67.50
20512;DHT22;10414;52.074;5.126;2022-07-24T12:09:16;31.70;68.30
20512;DHT22;10414;52.074;5.126;2022-07-24T12:11:43;31.00;68.60
20512;DHT22;10414;52.074;5.126;2022-07-24T12:14:14;30.70;69.00
20512;DHT22;10414;52.074;5.126;2022-07-24T12:16:42;30.70;68.80
20512;DHT22;10414;52.074;5.126;2022-07-24T12:19:16;30.80;69.00
20512;DHT22;10414;52.074;5.126;2022-07-24T12:21:45;30.60;69.70
20512;DHT22;10414;52.074;5.126;2022-07-24T12:24:12;30.80;69.60
20512;DHT22;10414;52.074;5.126;2022-07-24T12:26:50;31.00;69.90
20512;DHT22;10414;52.074;5.126;2022-07-24T12:29:17;30.90;69.80
20512;DHT22;10414;52.074;5.126;2022-07-24T12:31:45;30.80;70.20
20512;DHT22;10414;52.074;5.126;2022-07-24T12:34:12;30.70;70.30
20512;DHT22;10414;52.074;5.126;2022-07-24T12:36:40;31.00;70.10
20512;DHT22;10414;52.074;5.126;2022-07-24T12:39:08;30.80;70.80
20512;DHT22;10414;52.074;5.126;2022-07-24T12:41:43;30.70;70.40
20512;DHT22;10414;52.074;5.126;2022-07-24T12:44:11;30.30;71.10
20512;DHT22;10414;52.074;5.126;2022-07-24T12:46:40;30.20;70.80
20512;DHT22;10414;52.074;5.126;2022-07-24T12:49:08;30.10;71.90
20512;DHT22;10414;52.074;5.126;2022-07-24T12:51:51;30.10;71.40
20512;DHT22;10414;52.074;5.126;2022-07-24T12:54:21;30.20;71.20
20512;DHT22;10414;52.074;5.126;2022-07-24T12:56:48;30.10;71.30
20512;DHT22;10414;52.074;5.126;2022-07-24T12:59:27;30.00;71.60
20512;DHT22;10414;52.074;5.126;2022-07-24T13:01:56;30.00;72.30
20512;DHT22;10414;52.074;5.126;2022-07-24T13:04:25;30.20;71.80
20512;DHT22;10414;52.074;5.126;2022-07-24T13:06:55;30.50;71.60
20512;DHT22;10414;52.074;5.126;2022-07-24T13:09:22;30.40;72.00
20512;DHT22;10414;52.074;5.126;2022-07-24T13:11:51;30.50;71.50
20512;DHT22;10414;52.074;5.126;2022-07-24T13:14:21;30.40;71.20
20512;DHT22;10414;52.074;5.126;2022-07-24T13:16:50;30.50;71.30
20512;DHT22;10414;52.074;5.126;2022-07-24T13:19:19;30.40;71.10
20512;DHT22;10414;52.074;5.126;2022-07-24T13:21:46;30.50;71.00
20512;DHT22;10414;52.074;5.126;2022-07-24T13:24:16;30.40;71.80
20512;DHT22;10414;52.074;5.126;2022-07-24T13:26:44;30.50;71.10
20512;DHT22;10414;52.074;5.126;2022-07-24T13:29:12;30.40;71.00
20512;DHT22;10414;52.074;5.126;2022-07-24T13:31:40;30.30;71.60
20512;DHT22;10414;52.074;5.126;2022-07-24T13:34:08;30.30;71.50
20512;DHT22;10414;52.074;5.126;2022-07-24T13:36:35;30.40;71.60
20512;DHT22;10414;52.074;5.126;2022-07-24T13:39:03;30.40;71.40
20512;DHT22;10414;52.074;5.126;2022-07-24T13:41:32;30.50;71.60
20512;DHT22;10414;52.074;5.126;2022-07-24T13:43:59;30.40;71.70
20512;DHT22;10414;52.074;5.126;2022-07-24T13:46:26;30.50;71.70
20512;DHT22;10414;52.074;5.126;2022-07-24T13:48:54;30.50;71.50
20512;DHT22;10414;52.074;5.126;2022-07-24T13:51:21;30.40;71.70
20512;DHT22;10414;52.074;5.126;2022-07-24T13:53:48;30.50;71.50
20512;DHT22;10414;52.074;5.126;2022-07-24T13:56:15;30.60;71.40
20512;DHT22;10414;52.074;5.126;2022-07-24T13:58:43;30.70;71.40
20512;DHT22;10414;52.074;5.126;2022-07-24T14:01:10;30.60;72.50
20512;DHT22;10414;52.074;5.126;2022-07-24T14:03:38;30.80;71.50
20512;DHT22;10414;52.074;5.126;2022-07-24T14:06:08;30.90;71.30
20512;DHT22;10414;52.074;5.126;2022-07-24T14:08:35;30.80;71.30
20512;DHT22;10414;52.074;5.126;2022-07-24T14:11:02;30.80;71.30
20512;DHT22;10414;52.074;5.126;2022-07-24T14:13:30;31.00;71.00
20512;DHT22;10414;52.074;5.126;2022-07-24T14:15:58;31.00;71.20
20512;DHT22;10414;52.074;5.126;2022-07-24T14:18:26;30.90;70.80
20512;DHT22;10414;52.074;5.126;2022-07-24T14:20:53;30.70;71.70
20512;DHT22;10414;52.074;5.126;2022-07-24T14:23:20;30.60;71.60
20512;DHT22;10414;52.074;5.126;2022-07-24T14:25:47;30.70;71.50
20512;DHT22;10414;52.074;5.126;2022-07-24T14:28:14;30.90;71.40
20512;DHT22;10414;52.074;5.126;2022-07-24T14:30:41;30.80;71.30
20512;DHT22;10414;52.074;5.126;2022-07-24T14:33:10;30.70;71.20
20512;DHT22;10414;52.074;5.126;2022-07-24T14:35:37;30.80;71.20
20512;DHT22;10414;52.074;5.126;2022-07-24T14:38:04;30.80;70.90
20512;DHT22;10414;52.074;5.126;2022-07-24T14:40:31;30.60;71.50
20512;DHT22;10414;52.074;5.126;2022-07-24T14:42:58;30.80;71.70
20512;DHT22;10414;52.074;5.126;2022-07-24T14:45:25;30.90;71.50
20512;DHT22;10414;52.074;5.126;2022-07-24T14:47:51;30.90;71.00
20512;DHT22;10414;52.074;5.126;2022-07-24T14:50:20;30.70;71.60
20512;DHT22;10414;52.074;5.126;2022-07-24T14:52:47;30.60;71.80
20512;DHT22;10414;52.074;5.126;2022-07-24T14:55:14;30.70;71.80
20512;DHT22;10414;52.074;5.126;2022-07-24T14:57:42;30.70;71.70
20512;DHT22;10414;52.074;5.126;2022-07-24T15:00:10;30.60;72.10
20512;DHT22;10414;52.074;5.126;2022-07-24T15:02:37;30.70;71.80
20512;DHT22;10414;52.074;5.126;2022-07-24T15:05:05;30.60;72.10
20512;DHT22;10414;52.074;5.126;2022-07-24T15:07:33;30.50;71.90
20512;DHT22;10414;52.074;5.126;2022-07-24T15:10:00;30.40;72.60
20512;DHT22;10414;52.074;5.126;2022-07-24T15:12:27;30.40;72.50
20512;DHT22;10414;52.074;5.126;2022-07-24T15:14:54;30.10;72.90
20512;DHT22;10414;52.074;5.126;2022-07-24T15:17:21;30.00;73.30
20512;DHT22;10414;52.074;5.126;2022-07-24T15:19:48;30.20;73.00
20512;DHT22;10414;52.074;5.126;2022-07-24T15:22:15;30.30;73.10
20512;DHT22;10414;52.074;5.126;2022-07-24T15:24:44;30.50;72.50
20512;DHT22;10414;52.074;5.126;2022-07-24T15:27:10;30.70;72.50
20512;DHT22;10414;52.074;5.126;2022-07-24T15:29:37;30.70;72.40
20512;DHT22;10414;52.074;5.126;2022-07-24T15:32:04;30.50;72.80
20512;DHT22;10414;52.074;5.126;2022-07-24T15:34:31;30.50;72.60
20512;DHT22;10414;52.074;5.126;2022-07-24T15:36:58;30.50;72.90
20512;DHT22;10414;52.074;5.126;2022-07-24T15:39:25;30.60;73.00